Time;durP1;ratioP1;P1;durP2;ratioP2;P2;SDS_P1;SDS_P2;PMS_P1;PMS_P2;Temp;Humidity;BMP_temperature;BMP_pressure;BME280_temperature;BME280_humidity;BME280_pressure;Samples;Min_cycle;Max_cycle;Signal;HPM_P1;HPM_P2
2023/03/10 21:33:09;;;;;;;6.68;2.50;;;;;;;1.44;100.00;100306.38;6302208;22;20093;-84
2023/03/10 21:35:37;;;;;;;7.95;2.05;;;;;;;1.34;100.00;100308.47;6176419;22;20462;-83
2023/03/10 21:38:02;;;;;;;8.18;2.47;;;;;;;1.37;100.00;100315.41;6175094;22;20081;-83
2023/03/10 21:40:28;;;;;;;5.43;2.05;;;;;;;1.38;100.00;100314.47;6175706;22;20438;-83
2023/03/10 21:42:53;;;;;;;15.75;2.40;;;;;;;1.37;100.00;100321.50;6175751;22;20031;-83
2023/03/10 21:45:22;;;;;;;7.35;2.53;;;;;;;1.53;100.00;100335.81;6307562;22;20016;-83
2023/03/10 21:47:48;;;;;;;5.00;1.98;;;;;;;1.43;100.00;100337.06;6307496;22;20011;-83
2023/03/10 21:50:14;;;;;;;7.22;2.40;;;;;;;1.40;100.00;100341.53;6308204;22;20011;-84
2023/03/10 21:52:40;;;;;;;5.57;2.40;;;;;;;1.46;100.00;100341.34;6308663;22;20019;-82
2023/03/10 21:55:07;;;;;;;2.65;1.48;;;;;;;1.51;100.00;100350.78;6178119;22;20094;-83
2023/03/10 21:57:33;;;;;;;7.13;1.42;;;;;;;1.50;100.00;100358.72;6309852;22;20017;-84
2023/03/10 21:59:59;;;;;;;3.60;1.83;;;;;;;1.61;100.00;100366.22;6311592;22;20011;-83
2023/03/10 22:02:28;;;;;;;2.22;1.50;;;;;;;1.59;100.00;100363.66;6310425;22;20012;-82
2023/03/10 22:04:54;;;;;;;4.38;2.00;;;;;;;1.62;100.00;100381.09;6154477;22;20333;-83
2023/03/10 22:07:20;;;;;;;2.25;1.40;;;;;;;1.58;100.00;100385.59;6307890;22;20014;-84
2023/03/10 22:09:46;;;;;;;3.45;1.45;;;;;;;1.46;100.00;100393.91;6177674;22;20011;-85
2023/03/10 22:12:12;;;;;;;4.32;1.27;;;;;;;1.53;100.00;100400.66;6178823;22;20015;-83
2023/03/10 22:14:39;;;;;;;2.42;1.42;;;;;;;1.61;100.00;100398.63;6180090;22;20385;-84
2023/03/10 22:17:05;;;;;;;4.80;1.80;;;;;;;1.53;100.00;100412.03;6310829;22;20015;-85
2023/03/10 22:19:30;;;;;;;2.58;1.48;;;;;;;1.63;100.00;100417.81;6166779;22;20485;-83
2023/03/10 22:21:56;;;;;;;6.50;1.67;;;;;;;1.59;100.00;100416.22;6160948;22;20015;-83
2023/03/10 22:24:21;;;;;;;2.80;1.45;;;;;;;1.55;100.00;100419.84;6290672;22;20011;-84
2023/03/10 22:26:47;;;;;;;3.35;1.58;;;;;;;1.47;100.00;100427.13;6287830;22;20021;-83
2023/03/10 22:29:12;;;;;;;6.65;1.75;;;;;;;1.50;100.00;100430.50;6289007;22;20867;-84
2023/03/10 22:31:37;;;;;;;2.95;1.45;;;;;;;1.55;100.00;100438.22;6156641;22;20019;-83
2023/03/10 22:34:03;;;;;;;4.75;1.83;;;;;;;1.74;100.00;100433.22;6159719;22;20025;-84
2023/03/10 22:36:28;;;;;;;3.75;1.73;;;;;;;1.62;100.00;100431.88;6159909;22;20035;-84
2023/03/10 22:38:54;;;;;;;3.17;1.85;;;;;;;1.73;100.00;100442.03;6290814;22;20514;-84
2023/03/10 22:41:20;;;;;;;10.13;1.60;;;;;;;1.59;100.00;100447.75;6290941;22;20015;-85
2023/03/10 22:43:45;;;;;;;3.38;1.90;;;;;;;1.60;100.00;100453.84;6158072;22;20019;-82
2023/03/10 22:46:13;;;;;;;4.55;1.90;;;;;;;1.68;100.00;100472.88;6159844;22;20088;-84
2023/03/10 22:48:39;;;;;;;2.38;1.42;;;;;;;1.70;100.00;100457.88;6160132;22;20011;-85
2023/03/10 22:51:11;;;;;;;3.13;1.88;;;;;;;1.77;100.00;100464.69;6290389;22;20085;-85
2023/03/10 22:53:36;;;;;;;6.07;1.95;;;;;;;1.75;100.00;100462.09;6292818;22;20007;-85
2023/03/10 22:56:02;;;;;;;2.05;1.52;;;;;;;1.72;100.00;100470.09;6161725;22;20067;-83
2023/03/10 22:58:27;;;;;;;7.30;1.98;;;;;;;1.67;100.00;100472.00;6294760;22;20338;-85
2023/03/10 23:00:53;;;;;;;11.60;4.07;;;;;;;1.59;100.00;100476.63;6295241;22;20015;-85
2023/03/10 23:03:18;;;;;;;6.95;1.70;;;;;;;1.63;100.00;100482.66;6294590;22;20022;-85
2023/03/10 23:05:44;;;;;;;3.60;1.88;;;;;;;1.60;100.00;100488.00;6294385;22;20046;-85
2023/03/10 23:08:10;;;;;;;5.78;2.28;;;;;;;1.64;100.00;100487.00;6165064;22;20015;-85
2023/03/10 23:10:37;;;;;;;2.55;1.73;;;;;;;1.71;100.00;100489.41;6166643;22;20066;-85
2023/03/10 23:13:11;;;;;;;5.07;1.70;;;;;;;1.69;100.00;100485.09;6299104;22;20643;-85
2023/03/10 23:15:37;;;;;;;5.57;1.77;;;;;;;1.60;100.00;100478.34;6166079;22;20015;-84
2023/03/10 23:18:05;;;;;;;9.43;2.00;;;;;;;1.75;100.00;100485.72;6165278;22;20019;-85
2023/03/10 23:20:37;;;;;;;1.83;1.60;;;;;;;1.64;100.00;100490.50;6170163;22;20106;-85
2023/03/10 23:23:04;;;;;;;3.33;1.63;;;;;;;1.81;100.00;100488.19;6164197;22;20019;-85
2023/03/10 23:25:36;;;;;;;4.18;1.98;;;;;;;1.65;100.00;100489.56;6296681;22;20019;-85
2023/03/10 23:28:03;;;;;;;5.35;1.85;;;;;;;1.75;100.00;100491.00;6162374;22;20019;-85
2023/03/10 23:30:28;;;;;;;6.07;1.67;;;;;;;1.65;100.00;100491.34;6164312;22;20076;-85
2023/03/10 23:32:54;;;;;;;3.05;1.40;;;;;;;1.62;100.00;100487.06;6165183;22;20098;-85
2023/03/10 23:35:27;;;;;;;3.22;1.30;;;;;;;1.61;100.00;100498.50;6164732;22;20015;-85
2023/03/10 23:37:53;;;;;;;8.68;1.60;;;;;;;1.58;100.00;100501.22;6141839;22;20020;-85
2023/03/10 23:40:21;;;;;;;7.75;1.13;;;;;;;1.71;100.00;100505.16;6165607;22;20015;-86
2023/03/10 23:42:47;;;;;;;3.58;1.65;;;;;;;1.63;100.00;100517.69;6165301;22;20030;-85
2023/03/10 23:45:16;;;;;;;5.38;1.70;;;;;;;1.53;100.00;100530.25;6295825;22;20019;-84
2023/03/10 23:47:42;;;;;;;9.57;2.30;;;;;;;1.64;100.00;100529.06;6163603;22;20778;-85
2023/03/10 23:50:10;;;;;;;6.03;2.40;;;;;;;1.71;100.00;100538.47;6295731;22;20039;-85
2023/03/10 23:52:35;;;;;;;5.70;2.33;;;;;;;2.03;100.00;100548.78;6164808;22;20011;-85
2023/03/10 23:55:01;;;;;;;12.52;2.63;;;;;;;1.89;100.00;100545.75;6164448;22;20049;-86
2023/03/10 23:57:26;;;;;;;11.00;2.85;;;;;;;1.91;100.00;100551.84;6161887;22;20190;-85
2023/03/10 23:59:52;;;;;;;9.20;2.28;;;;;;;1.82;100.00;100554.75;6161920;22;20015;-85
